createdAt,value
2018-03-27T00:02:21.567Z,8.55
2018-03-27T00:04:49.542Z,10.35
2018-03-27T00:07:17.608Z,9.45
2018-03-27T00:09:45.605Z,9.27
2018-03-27T00:12:13.563Z,10.40
2018-03-27T00:14:41.625Z,9.48
2018-03-27T00:17:09.521Z,8.40
2018-03-27T00:19:37.527Z,12.05
2018-03-27T00:22:05.477Z,7.20
2018-03-27T00:24:39.484Z,6.47
2018-03-27T00:27:07.364Z,6.97
2018-03-27T00:29:41.509Z,7.12
2018-03-27T00:32:15.693Z,8.75
2018-03-27T00:34:49.900Z,11.88
2018-03-27T00:37:23.960Z,6.68
2018-03-27T00:39:58.174Z,13.15
2018-03-27T00:42:42.968Z,7.30
2018-03-27T00:45:10.967Z,9.80
2018-03-27T00:47:38.951Z,7.72
2018-03-27T00:50:06.936Z,9.45
2018-03-27T00:52:34.914Z,7.25
2018-03-27T00:55:02.932Z,8.85
2018-03-27T00:57:30.937Z,11.25
2018-03-27T00:59:58.944Z,8.95
2018-03-27T01:02:26.947Z,9.27
2018-03-27T01:04:54.937Z,8.05
2018-03-27T01:07:22.887Z,8.20
2018-03-27T01:09:50.849Z,12.40
2018-03-27T01:12:18.819Z,10.13
2018-03-27T01:14:46.800Z,7.72
2018-03-27T01:17:14.821Z,8.98
2018-03-27T01:19:42.808Z,7.60
2018-03-27T01:22:10.788Z,9.30
2018-03-27T01:24:38.781Z,8.77
2018-03-27T01:27:06.744Z,7.03
2018-03-27T01:29:34.737Z,7.25
2018-03-27T01:32:02.753Z,8.95
2018-03-27T01:34:30.740Z,8.55
2018-03-27T01:36:58.710Z,11.30
2018-03-27T01:39:26.728Z,8.55
2018-03-27T01:41:54.747Z,9.15
2018-03-27T01:44:22.749Z,7.95
2018-03-27T01:46:50.732Z,8.55
2018-03-27T01:49:18.728Z,8.48
2018-03-27T01:51:46.720Z,7.93
2018-03-27T01:54:14.736Z,8.25
2018-03-27T01:56:42.768Z,11.18
2018-03-27T01:59:10.725Z,9.20
2018-03-27T02:01:38.732Z,12.75
2018-03-27T02:04:06.716Z,10.65
2018-03-27T02:06:34.704Z,9.55
2018-03-27T02:09:02.705Z,9.90
2018-03-27T02:11:36.845Z,9.02
2018-03-27T02:14:10.913Z,9.55
2018-03-27T02:16:44.948Z,9.50
2018-03-27T02:19:19.386Z,8.88
2018-03-27T02:21:47.335Z,8.43
2018-03-27T02:24:18.284Z,6.82
2018-03-27T02:26:46.255Z,10.65
2018-03-27T02:29:14.225Z,9.27
2018-03-27T02:31:42.228Z,7.25
2018-03-27T02:34:10.228Z,9.68
2018-03-27T02:36:38.200Z,9.10
2018-03-27T02:39:06.193Z,7.25
2018-03-27T02:41:34.161Z,9.88
2018-03-27T02:44:02.152Z,12.48
2018-03-27T02:46:30.134Z,10.05
2018-03-27T02:48:58.094Z,11.40
2018-03-27T02:51:26.072Z,8.95
2018-03-27T02:53:55.124Z,9.45
2018-03-27T02:56:23.113Z,7.68
2018-03-27T02:58:51.088Z,9.38
2018-03-27T03:01:19.389Z,7.35
2018-03-27T03:03:47.385Z,7.22
2018-03-27T03:06:15.328Z,7.60
2018-03-27T03:08:43.352Z,9.82
2018-03-27T03:11:13.412Z,9.13
2018-03-27T03:13:41.368Z,8.73
2018-03-27T03:16:09.360Z,6.37
2018-03-27T03:18:37.371Z,8.20
2018-03-27T03:21:05.327Z,11.75
2018-03-27T03:23:33.304Z,7.22
2018-03-27T03:26:01.296Z,10.07
2018-03-27T03:28:29.307Z,7.80
2018-03-27T03:30:57.360Z,10.45
2018-03-27T03:33:25.385Z,7.43
2018-03-27T03:35:53.360Z,7.95
2018-03-27T03:38:21.351Z,8.10
2018-03-27T03:40:49.320Z,8.65
2018-03-27T03:43:17.296Z,6.60
2018-03-27T03:45:45.280Z,6.20
2018-03-27T03:48:13.248Z,10.00
2018-03-27T03:50:41.253Z,10.85
2018-03-27T03:53:09.285Z,8.57
2018-03-27T03:55:37.202Z,10.70
2018-03-27T03:58:05.151Z,13.25
2018-03-27T04:00:33.163Z,9.55
2018-03-27T04:03:01.172Z,9.52
2018-03-27T04:05:29.147Z,8.63
2018-03-27T04:07:57.136Z,11.65
2018-03-27T04:10:25.094Z,11.60
2018-03-27T04:12:53.049Z,11.82
2018-03-27T04:15:21.083Z,8.57
2018-03-27T04:17:49.036Z,8.55
2018-03-27T04:20:17.028Z,9.48
2018-03-27T04:22:45.020Z,9.20
2018-03-27T04:25:12.988Z,9.80
2018-03-27T04:27:40.963Z,12.98
2018-03-27T04:30:08.944Z,11.85
2018-03-27T04:32:36.904Z,7.15
2018-03-27T04:35:04.860Z,12.63
2018-03-27T04:37:32.866Z,9.20
2018-03-27T04:40:00.868Z,12.43
2018-03-27T04:42:28.875Z,10.23
2018-03-27T04:44:56.902Z,10.98
2018-03-27T04:47:24.848Z,11.77
2018-03-27T04:49:52.821Z,12.60
2018-03-27T04:52:20.831Z,14.13
2018-03-27T04:54:48.808Z,10.98
2018-03-27T04:57:16.812Z,9.82
2018-03-27T04:59:44.816Z,8.90
2018-03-27T05:02:12.808Z,10.23
2018-03-27T05:04:40.812Z,11.68
2018-03-27T05:07:08.819Z,8.63
2018-03-27T05:09:36.792Z,9.30
2018-03-27T05:12:04.832Z,10.57
2018-03-27T05:14:32.764Z,17.33
2018-03-27T05:17:00.742Z,14.73
2018-03-27T05:19:28.771Z,11.12
2018-03-27T05:21:56.763Z,10.55
2018-03-27T05:24:26.790Z,10.55
2018-03-27T05:26:54.788Z,11.27
2018-03-27T05:29:22.759Z,12.43
2018-03-27T05:31:50.757Z,12.07
2018-03-27T05:34:18.731Z,10.30
2018-03-27T05:36:46.796Z,10.10
2018-03-27T05:39:14.750Z,16.33
2018-03-27T05:41:42.769Z,13.75
2018-03-27T05:44:10.775Z,9.95
2018-03-27T05:46:38.849Z,10.30
2018-03-27T05:49:06.805Z,10.68
2018-03-27T05:51:34.813Z,11.82
2018-03-27T05:54:02.788Z,10.15
2018-03-27T05:56:30.760Z,13.07
2018-03-27T05:58:58.764Z,16.62
2018-03-27T06:01:26.728Z,13.00
2018-03-27T06:03:54.710Z,13.02
2018-03-27T06:06:22.692Z,13.45
2018-03-27T06:08:50.669Z,8.85
2018-03-27T06:11:19.776Z,9.15
2018-03-27T06:13:48.897Z,11.93
2018-03-27T06:16:16.864Z,11.10
2018-03-27T06:18:44.851Z,17.40
2018-03-27T06:21:12.824Z,17.05
2018-03-27T06:23:40.792Z,13.95
2018-03-27T06:26:08.774Z,12.95
2018-03-27T06:28:36.775Z,19.45
2018-03-27T06:31:04.744Z,11.98
2018-03-27T06:33:32.712Z,17.20
2018-03-27T06:36:00.689Z,12.25
2018-03-27T06:38:28.720Z,16.42
2018-03-27T06:40:56.684Z,15.60
2018-03-27T06:43:24.672Z,14.00
2018-03-27T06:45:52.672Z,17.87
2018-03-27T06:48:20.648Z,17.23
2018-03-27T06:50:48.615Z,14.27
2018-03-27T06:53:16.631Z,14.85
2018-03-27T06:55:44.581Z,17.15
2018-03-27T06:58:12.543Z,17.40
2018-03-27T07:00:40.484Z,18.90
2018-03-27T07:03:08.443Z,14.32
2018-03-27T07:05:36.500Z,11.75
2018-03-27T07:08:04.521Z,15.82
2018-03-27T07:10:32.532Z,23.15
2018-03-27T07:13:00.512Z,15.70
2018-03-27T07:15:28.495Z,15.25
2018-03-27T07:17:56.490Z,14.80
2018-03-27T07:20:24.471Z,13.68
2018-03-27T07:22:52.422Z,16.08
2018-03-27T07:25:20.474Z,17.55
2018-03-27T07:27:48.505Z,13.98
2018-03-27T07:30:16.444Z,13.15
2018-03-27T07:32:44.436Z,10.57
2018-03-27T07:35:12.425Z,9.82
2018-03-27T07:37:40.400Z,13.05
2018-03-27T07:40:08.408Z,14.38
2018-03-27T07:42:36.367Z,12.68
2018-03-27T07:45:04.337Z,19.23
2018-03-27T07:47:32.304Z,13.23
2018-03-27T07:50:00.311Z,14.43
2018-03-27T07:52:28.277Z,13.02
2018-03-27T07:54:56.256Z,14.18
2018-03-27T07:57:24.256Z,20.60
2018-03-27T07:59:52.244Z,11.65
2018-03-27T08:02:20.269Z,17.40
2018-03-27T08:04:48.243Z,21.10
2018-03-27T08:07:16.257Z,17.37
2018-03-27T08:09:45.285Z,15.75
2018-03-27T08:12:13.304Z,15.85
2018-03-27T08:14:41.245Z,17.77
2018-03-27T08:17:09.213Z,16.42
2018-03-27T08:19:37.200Z,18.00
2018-03-27T08:22:05.196Z,19.05
2018-03-27T08:24:33.181Z,17.77
2018-03-27T08:27:01.167Z,23.90
2018-03-27T08:29:29.157Z,13.65
2018-03-27T08:31:57.141Z,12.18
2018-03-27T08:34:25.161Z,15.23
2018-03-27T08:36:53.172Z,15.90
2018-03-27T08:39:21.162Z,13.70
2018-03-27T08:41:49.172Z,12.80
2018-03-27T08:44:17.164Z,14.40
2018-03-27T08:46:45.136Z,14.90
2018-03-27T08:49:13.134Z,15.43
2018-03-27T08:51:41.118Z,19.30
2018-03-27T08:54:09.112Z,12.90
2018-03-27T08:56:37.180Z,13.70
2018-03-27T08:59:05.168Z,14.73
2018-03-27T09:01:33.188Z,10.83
2018-03-27T09:04:01.185Z,10.30
2018-03-27T09:06:29.166Z,13.00
2018-03-27T09:08:57.152Z,12.83
2018-03-27T09:11:25.161Z,17.67
2018-03-27T09:13:53.140Z,11.50
2018-03-27T09:16:21.132Z,13.20
2018-03-27T09:18:49.467Z,13.77
2018-03-27T09:21:17.448Z,12.73
2018-03-27T09:23:45.410Z,15.60
2018-03-27T09:26:13.452Z,10.77
2018-03-27T09:28:41.442Z,11.77
2018-03-27T09:31:09.383Z,12.77
2018-03-27T09:33:37.396Z,12.93
2018-03-27T09:36:05.346Z,16.83
2018-03-27T09:38:33.318Z,18.13
2018-03-27T09:41:02.294Z,13.73
2018-03-27T09:43:30.321Z,14.00
2018-03-27T09:45:58.313Z,12.43
2018-03-27T09:48:26.337Z,11.90
2018-03-27T09:50:54.406Z,12.03
2018-03-27T09:53:22.358Z,17.07
2018-03-27T09:55:50.348Z,14.60
2018-03-27T09:58:18.338Z,12.67
2018-03-27T10:00:50.788Z,15.20
2018-03-27T10:03:18.781Z,16.00
2018-03-27T10:05:46.765Z,16.60
2018-03-27T10:08:14.764Z,14.83
2018-03-27T10:10:43.872Z,16.23
2018-03-27T10:13:12.619Z,15.47
2018-03-27T10:15:41.222Z,14.93
2018-03-27T10:18:09.277Z,14.00
2018-03-27T10:20:38.438Z,16.23
2018-03-27T10:23:06.397Z,13.20
2018-03-27T10:25:35.172Z,12.63
2018-03-27T10:28:03.197Z,15.30
2018-03-27T10:30:31.204Z,15.53
2018-03-27T10:33:00.258Z,19.30
2018-03-27T10:35:28.226Z,17.23
2018-03-27T10:37:56.203Z,20.43
2018-03-27T10:40:24.233Z,19.53
2018-03-27T10:42:52.237Z,16.90
2018-03-27T10:45:20.180Z,15.37
2018-03-27T10:47:48.160Z,16.60
2018-03-27T10:50:16.155Z,18.30
2018-03-27T10:52:44.124Z,16.77
2018-03-27T10:55:12.141Z,21.37
2018-03-27T10:57:40.152Z,23.83
2018-03-27T11:00:08.120Z,18.33
2018-03-27T11:02:36.117Z,22.57
2018-03-27T11:05:04.063Z,22.10
2018-03-27T11:07:32.040Z,18.00
2018-03-27T11:10:00.075Z,17.30
2018-03-27T11:12:28.028Z,20.60
2018-03-27T11:14:56.048Z,19.20
2018-03-27T11:17:24.046Z,19.17
2018-03-27T11:19:52.038Z,19.70
2018-03-27T11:22:20.032Z,21.70
2018-03-27T11:24:48.039Z,23.50
2018-03-27T11:27:16.027Z,20.33
2018-03-27T11:29:44.013Z,21.67
2018-03-27T11:32:12.033Z,22.40
2018-03-27T11:34:40.004Z,20.60
2018-03-27T11:37:08.005Z,22.00
2018-03-27T11:39:36.021Z,21.20
2018-03-27T11:42:03.992Z,23.93
2018-03-27T11:44:32.024Z,30.57
2018-03-27T11:47:00.022Z,19.70
2018-03-27T11:49:27.976Z,22.57
2018-03-27T11:51:55.952Z,24.77
2018-03-27T11:54:23.974Z,20.63
2018-03-27T11:56:51.953Z,26.40
2018-03-27T11:59:19.944Z,23.80
2018-03-27T12:01:48.964Z,23.87
2018-03-27T12:04:16.981Z,28.23
2018-03-27T12:06:44.960Z,25.90
2018-03-27T12:09:12.989Z,22.13
2018-03-27T12:11:41.000Z,22.97
2018-03-27T12:14:08.972Z,22.43
2018-03-27T12:16:36.947Z,21.20
2018-03-27T12:19:04.950Z,26.40
2018-03-27T12:21:32.920Z,20.80
2018-03-27T12:24:00.871Z,18.97
2018-03-27T12:26:28.848Z,19.40
2018-03-27T12:28:56.800Z,26.80
2018-03-27T12:31:24.795Z,21.20
2018-03-27T12:33:52.788Z,24.83
2018-03-27T12:36:20.764Z,26.47
2018-03-27T12:38:48.780Z,23.73
2018-03-27T12:41:16.736Z,26.90
2018-03-27T12:43:44.722Z,30.23
2018-03-27T12:46:12.724Z,23.97
2018-03-27T12:48:40.720Z,24.00
2018-03-27T12:51:08.720Z,23.90
2018-03-27T12:53:36.708Z,25.20
2018-03-27T12:56:04.660Z,29.77
2018-03-27T12:58:32.630Z,27.27
2018-03-27T13:01:00.610Z,25.67
2018-03-27T13:03:29.628Z,25.27
2018-03-27T13:05:57.600Z,26.07
2018-03-27T13:08:25.584Z,24.13
2018-03-27T13:10:53.570Z,21.70
2018-03-27T13:13:21.576Z,23.43
2018-03-27T13:15:50.559Z,23.70
2018-03-27T13:18:18.508Z,22.23
2018-03-27T13:20:46.509Z,26.00
2018-03-27T13:23:14.504Z,23.23
2018-03-27T13:25:43.493Z,22.20
2018-03-27T13:28:11.504Z,28.47
2018-03-27T13:30:39.509Z,26.30
2018-03-27T13:33:07.562Z,26.60
2018-03-27T13:35:35.606Z,22.70
2018-03-27T13:38:03.739Z,26.90
2018-03-27T13:40:31.787Z,24.20
2018-03-27T13:42:59.830Z,27.80
2018-03-27T13:45:27.947Z,23.13
2018-03-27T13:47:55.968Z,27.93
2018-03-27T13:50:23.984Z,24.27
2018-03-27T13:52:52.089Z,21.47
2018-03-27T13:55:20.084Z,24.40
2018-03-27T13:57:48.134Z,24.63
2018-03-27T14:00:16.260Z,25.40
2018-03-27T14:02:44.341Z,27.50
2018-03-27T14:05:12.425Z,29.30
2018-03-27T14:07:40.502Z,24.67
2018-03-27T14:10:09.576Z,32.60
2018-03-27T14:12:37.547Z,28.90
2018-03-27T14:15:05.713Z,35.07
2018-03-27T14:17:33.897Z,32.08
2018-03-27T14:20:02.130Z,34.38
2018-03-27T14:22:30.148Z,29.10
2018-03-27T14:24:58.152Z,44.88
2018-03-27T14:27:26.169Z,33.50
2018-03-27T14:29:54.153Z,33.35
2018-03-27T14:32:22.176Z,32.67
2018-03-27T14:34:50.168Z,33.40
2018-03-27T14:37:18.250Z,33.13
2018-03-27T14:39:46.358Z,40.58
2018-03-27T14:42:14.343Z,35.05
2018-03-27T14:44:42.403Z,34.78
2018-03-27T14:47:10.368Z,43.13
2018-03-27T14:49:38.360Z,36.35
2018-03-27T14:52:06.404Z,43.08
2018-03-27T14:54:34.389Z,37.63
2018-03-27T14:57:02.397Z,37.75
2018-03-27T14:59:30.388Z,37.30
2018-03-27T15:01:58.356Z,41.33
2018-03-27T15:04:26.383Z,39.13
2018-03-27T15:06:54.406Z,37.10
2018-03-27T15:09:22.380Z,39.25
2018-03-27T15:11:50.424Z,33.93
2018-03-27T15:14:18.675Z,39.42
2018-03-27T15:16:47.336Z,38.97
2018-03-27T15:19:15.323Z,37.90
2018-03-27T15:21:43.373Z,37.97
2018-03-27T15:24:11.344Z,35.70
2018-03-27T15:26:39.314Z,34.23
2018-03-27T15:29:07.324Z,43.70
2018-03-27T15:31:35.331Z,38.53
2018-03-27T15:34:03.299Z,37.17
2018-03-27T15:36:31.320Z,36.90
2018-03-27T15:38:59.286Z,38.63
2018-03-27T15:41:27.305Z,34.87
2018-03-27T15:43:55.333Z,32.13
2018-03-27T15:46:23.287Z,35.47
2018-03-27T15:48:51.305Z,36.00
2018-03-27T15:51:19.326Z,30.40
2018-03-27T15:53:47.356Z,31.25
2018-03-27T15:56:15.340Z,32.17
2018-03-27T15:58:43.351Z,30.67
2018-03-27T16:01:11.348Z,28.47
2018-03-27T16:03:39.355Z,29.10
2018-03-27T16:06:07.372Z,33.55
2018-03-27T16:08:35.342Z,28.02
2018-03-27T16:11:03.304Z,31.50
2018-03-27T16:13:31.325Z,27.62
2018-03-27T16:15:59.318Z,29.33
2018-03-27T16:18:27.317Z,31.70
2018-03-27T16:20:56.341Z,30.80
2018-03-27T16:23:24.300Z,27.83
2018-03-27T16:25:52.292Z,28.87
2018-03-27T16:28:20.289Z,24.95
2018-03-27T16:30:48.348Z,26.05
2018-03-27T16:33:16.328Z,26.50
2018-03-27T16:35:44.371Z,31.17
2018-03-27T16:38:12.404Z,33.67
2018-03-27T16:40:40.377Z,23.58
2018-03-27T16:43:08.392Z,31.85
2018-03-27T16:45:36.392Z,27.73
2018-03-27T16:48:04.420Z,36.05
2018-03-27T16:50:32.456Z,34.35
2018-03-27T16:53:00.444Z,27.50
2018-03-27T16:55:28.403Z,28.67
2018-03-27T16:57:56.437Z,21.40
2018-03-27T17:00:25.540Z,20.55
2018-03-27T17:02:53.500Z,23.70
2018-03-27T17:05:21.469Z,27.02
2018-03-27T17:07:49.494Z,24.30
2018-03-27T17:10:17.499Z,28.20
2018-03-27T17:12:45.465Z,26.95
2018-03-27T17:15:13.431Z,24.67
2018-03-27T17:17:41.516Z,33.00
2018-03-27T17:20:09.514Z,26.90
2018-03-27T17:22:37.510Z,27.98
2018-03-27T17:25:05.468Z,30.67
2018-03-27T17:27:34.347Z,29.92
2018-03-27T17:30:02.340Z,32.20
2018-03-27T17:32:30.325Z,30.60
2018-03-27T17:34:58.421Z,34.10
2018-03-27T17:37:26.437Z,38.72
2018-03-27T17:39:54.512Z,33.05
2018-03-27T17:42:23.539Z,41.17
2018-03-27T17:44:51.546Z,31.30
2018-03-27T17:47:19.549Z,37.10
2018-03-27T17:49:47.532Z,32.90
2018-03-27T17:52:15.505Z,34.55
2018-03-27T17:54:43.492Z,44.90
2018-03-27T17:57:11.503Z,27.60
2018-03-27T17:59:39.512Z,32.63
2018-03-27T18:02:07.564Z,38.13
2018-03-27T18:04:35.564Z,37.28
2018-03-27T18:07:03.628Z,39.03
2018-03-27T18:09:31.624Z,36.88
2018-03-27T18:11:59.596Z,34.25
2018-03-27T18:14:27.576Z,31.83
2018-03-27T18:16:55.556Z,38.20
2018-03-27T18:19:23.547Z,39.47
2018-03-27T18:21:51.488Z,36.35
2018-03-27T18:24:19.480Z,39.50
2018-03-27T18:26:47.468Z,37.90
2018-03-27T18:29:15.448Z,41.88
2018-03-27T18:31:43.416Z,40.92
2018-03-27T18:34:11.441Z,39.88
2018-03-27T18:36:39.473Z,40.70
2018-03-27T18:39:07.557Z,38.13
2018-03-27T18:41:35.560Z,40.63
2018-03-27T18:44:03.557Z,34.92
2018-03-27T18:46:31.532Z,35.08
2018-03-27T18:48:59.528Z,39.80
2018-03-27T18:51:27.504Z,50.47
2018-03-27T18:53:55.484Z,38.85
2018-03-27T18:56:23.500Z,38.78
2018-03-27T18:58:51.508Z,36.97
2018-03-27T19:01:19.572Z,40.55
2018-03-27T19:03:47.585Z,33.85
2018-03-27T19:06:15.616Z,39.90
2018-03-27T19:08:43.961Z,41.42
2018-03-27T19:11:11.978Z,39.38
2018-03-27T19:13:39.984Z,41.83
2018-03-27T19:16:07.964Z,35.58
2018-03-27T19:18:35.969Z,37.38
2018-03-27T19:21:03.969Z,38.97
2018-03-27T19:23:31.944Z,43.20
2018-03-27T19:25:59.968Z,39.25
2018-03-27T19:28:27.992Z,42.10
2018-03-27T19:30:56.050Z,45.88
2018-03-27T19:33:25.062Z,43.95
2018-03-27T19:35:53.068Z,42.05
2018-03-27T19:38:21.088Z,41.65
2018-03-27T19:40:49.065Z,44.85
2018-03-27T19:43:17.062Z,39.33
2018-03-27T19:45:45.103Z,48.60
2018-03-27T19:48:13.112Z,56.17
2018-03-27T19:50:41.120Z,45.15
2018-03-27T19:53:09.124Z,41.45
2018-03-27T19:55:37.115Z,50.12
2018-03-27T19:58:05.098Z,43.85
2018-03-27T20:00:33.092Z,35.92
2018-03-27T20:03:01.084Z,48.45
2018-03-27T20:05:29.062Z,42.67
2018-03-27T20:07:57.080Z,43.13
2018-03-27T20:10:25.096Z,46.28
2018-03-27T20:12:53.109Z,43.70
2018-03-27T20:15:21.138Z,37.35
2018-03-27T20:17:49.199Z,49.22
2018-03-27T20:20:17.123Z,38.72
2018-03-27T20:22:45.106Z,51.25
2018-03-27T20:25:13.095Z,48.08
2018-03-27T20:27:41.048Z,51.00
2018-03-27T20:30:09.037Z,44.03
2018-03-27T20:32:37.044Z,45.25
2018-03-27T20:35:05.025Z,53.85
2018-03-27T20:37:33.037Z,46.37
2018-03-27T20:40:01.011Z,47.10
2018-03-27T20:42:28.994Z,51.72
2018-03-27T20:44:56.984Z,47.97
2018-03-27T20:47:25.072Z,49.20
2018-03-27T20:49:53.077Z,48.92
2018-03-27T20:52:21.021Z,39.97
2018-03-27T20:54:49.018Z,49.65
2018-03-27T20:57:16.988Z,47.20
2018-03-27T20:59:44.995Z,51.53
2018-03-27T21:02:12.979Z,48.35
2018-03-27T21:04:41.007Z,51.20
2018-03-27T21:07:09.024Z,52.78
2018-03-27T21:09:37.198Z,49.58
2018-03-27T21:12:05.235Z,43.67
2018-03-27T21:14:33.197Z,59.63
2018-03-27T21:17:01.233Z,49.10
2018-03-27T21:19:29.199Z,51.78
2018-03-27T21:21:57.179Z,60.75
2018-03-27T21:24:25.186Z,57.45
2018-03-27T21:26:53.176Z,55.10
2018-03-27T21:29:21.139Z,56.37
2018-03-27T21:31:49.129Z,62.03
2018-03-27T21:34:17.132Z,48.40
2018-03-27T21:36:45.082Z,55.72
2018-03-27T21:39:13.069Z,45.10
2018-03-27T21:41:41.076Z,47.42
2018-03-27T21:44:09.172Z,47.08
2018-03-27T21:46:37.204Z,45.90
2018-03-27T21:49:05.225Z,47.92
2018-03-27T21:51:33.279Z,47.42
2018-03-27T21:54:02.347Z,48.20
2018-03-27T21:56:30.321Z,53.38
2018-03-27T21:58:58.344Z,47.83
2018-03-27T22:01:26.334Z,45.67
2018-03-27T22:03:54.316Z,41.95
2018-03-27T22:06:24.203Z,44.10
2018-03-27T22:08:52.176Z,55.65
2018-03-27T22:11:20.144Z,40.58
2018-03-27T22:13:48.112Z,48.35
2018-03-27T22:16:16.082Z,50.60
2018-03-27T22:18:45.176Z,50.12
2018-03-27T22:21:13.128Z,53.40
2018-03-27T22:23:41.105Z,44.92
2018-03-27T22:26:10.126Z,46.42
2018-03-27T22:28:38.112Z,50.12
2018-03-27T22:31:06.132Z,50.42
2018-03-27T22:33:34.124Z,49.22
2018-03-27T22:36:02.144Z,53.00
2018-03-27T22:38:30.136Z,40.83
2018-03-27T22:40:58.128Z,44.80
2018-03-27T22:43:26.097Z,46.22
2018-03-27T22:45:54.089Z,47.13
2018-03-27T22:48:22.049Z,55.17
2018-03-27T22:50:50.004Z,52.38
2018-03-27T22:53:17.996Z,40.17
2018-03-27T22:55:45.978Z,42.80
2018-03-27T22:58:13.999Z,47.28
2018-03-27T23:00:42.008Z,44.05
2018-03-27T23:03:11.073Z,45.58
2018-03-27T23:05:39.030Z,43.80
2018-03-27T23:08:07.060Z,43.15
2018-03-27T23:10:35.017Z,48.97
2018-03-27T23:13:03.992Z,44.08
2018-03-27T23:15:32.143Z,44.47
2018-03-27T23:18:00.378Z,49.22
2018-03-27T23:20:28.679Z,42.10
2018-03-27T23:22:56.987Z,42.45
2018-03-27T23:25:25.249Z,37.80
2018-03-27T23:27:54.457Z,39.40
2018-03-27T23:30:22.580Z,38.42
2018-03-27T23:32:50.571Z,39.08
2018-03-27T23:35:18.557Z,43.95
2018-03-27T23:37:46.576Z,40.50
2018-03-27T23:40:14.567Z,38.35
2018-03-27T23:42:42.565Z,36.33
2018-03-27T23:45:10.545Z,38.95
2018-03-27T23:47:38.522Z,36.10
2018-03-27T23:50:06.479Z,35.00
2018-03-27T23:52:34.448Z,37.10
2018-03-27T23:55:02.466Z,41.58
2018-03-27T23:57:30.427Z,35.78
2018-03-27T23:59:58.391Z,38.05
